createdAt,value
2022-10-23T00:00:15.734Z,15.40
2022-10-23T00:02:42.404Z,16.50
2022-10-23T00:05:09.222Z,16.05
2022-10-23T00:07:35.703Z,17.00
2022-10-23T00:10:02.340Z,15.60
2022-10-23T00:12:28.774Z,16.42
2022-10-23T00:14:55.195Z,16.35
2022-10-23T00:17:21.558Z,15.30
2022-10-23T00:19:47.926Z,15.40
2022-10-23T00:22:14.302Z,16.17
2022-10-23T00:24:40.675Z,14.27
2022-10-23T00:27:07.077Z,15.07
2022-10-23T00:29:33.499Z,15.10
2022-10-23T00:31:59.912Z,15.80
2022-10-23T00:34:26.300Z,14.87
2022-10-23T00:36:52.719Z,14.90
2022-10-23T00:39:19.132Z,15.30
2022-10-23T00:41:45.525Z,14.30
2022-10-23T00:44:18.003Z,14.40
2022-10-23T00:46:44.589Z,14.03
2022-10-23T00:51:50.085Z,13.73
2022-10-23T00:54:26.622Z,14.77
2022-10-23T00:56:56.130Z,14.27
2022-10-23T00:59:23.082Z,14.37
2022-10-23T01:01:49.757Z,14.32
2022-10-23T01:04:16.509Z,13.98
2022-10-23T01:07:07.012Z,13.25
2022-10-23T01:09:53.538Z,13.52
2022-10-23T01:12:30.637Z,12.93
2022-10-23T01:15:31.996Z,12.80
2022-10-23T01:18:07.547Z,13.80
2022-10-23T01:20:40.989Z,13.98
2022-10-23T01:23:35.295Z,13.13
2022-10-23T01:26:32.709Z,13.90
2022-10-23T01:29:14.268Z,14.15
2022-10-23T01:31:49.170Z,13.90
2022-10-23T01:34:27.697Z,13.73
2022-10-23T01:36:55.437Z,13.77
2022-10-23T01:39:31.043Z,13.73
2022-10-23T01:42:08.500Z,14.02
2022-10-23T01:44:41.789Z,13.13
2022-10-23T01:47:12.218Z,15.20
2022-10-23T01:49:41.990Z,14.80
2022-10-23T01:52:12.985Z,13.77
2022-10-23T01:54:42.946Z,14.07
2022-10-23T01:57:13.003Z,13.23
2022-10-23T01:59:44.342Z,14.00
2022-10-23T02:02:13.327Z,14.40
2022-10-23T02:04:50.811Z,14.93
2022-10-23T02:07:17.293Z,14.63
2022-10-23T02:09:43.748Z,14.68
2022-10-23T02:12:45.485Z,15.13
2022-10-23T02:15:20.103Z,16.35
2022-10-23T02:18:13.155Z,14.80
2022-10-23T02:20:46.442Z,15.55
2022-10-23T02:23:27.255Z,14.15
2022-10-23T02:26:00.308Z,14.52
2022-10-23T02:28:34.897Z,12.95
2022-10-23T02:31:04.314Z,14.33
2022-10-23T02:33:32.645Z,14.30
2022-10-23T02:35:59.051Z,13.20
2022-10-23T02:38:36.006Z,12.55
2022-10-23T02:41:17.344Z,12.25
2022-10-23T02:43:57.392Z,11.63
2022-10-23T02:46:54.444Z,12.15
2022-10-23T02:50:00.193Z,11.70
2022-10-23T02:52:38.470Z,10.00
2022-10-23T02:55:22.782Z,11.18
2022-10-23T02:58:07.323Z,10.50
2022-10-23T03:00:37.402Z,11.23
2022-10-23T03:03:14.802Z,10.50
2022-10-23T03:05:42.065Z,10.10
2022-10-23T03:08:10.325Z,10.15
2022-10-23T03:10:37.136Z,9.87
2022-10-23T03:13:04.008Z,9.68
2022-10-23T03:15:30.700Z,10.10
2022-10-23T03:17:57.135Z,9.40
2022-10-23T03:20:23.548Z,9.70
2022-10-23T03:22:49.972Z,9.90
2022-10-23T03:25:16.376Z,9.60
2022-10-23T03:27:42.763Z,8.80
2022-10-23T03:30:10.027Z,8.90
2022-10-23T03:32:36.605Z,9.20
2022-10-23T03:35:04.031Z,9.33
2022-10-23T03:37:30.415Z,8.70
2022-10-23T03:39:56.818Z,8.63
2022-10-23T03:42:23.220Z,8.27
2022-10-23T03:44:49.597Z,9.38
2022-10-23T03:47:15.986Z,8.70
2022-10-23T03:49:42.416Z,9.00
2022-10-23T03:52:08.892Z,8.63
2022-10-23T03:54:35.697Z,8.32
2022-10-23T03:57:02.379Z,8.68
2022-10-23T03:59:29.370Z,8.03
2022-10-23T04:01:55.996Z,8.05
2022-10-23T04:04:22.511Z,8.25
2022-10-23T04:06:48.906Z,8.32
2022-10-23T04:09:15.834Z,7.53
2022-10-23T04:11:42.289Z,8.30
2022-10-23T04:14:12.104Z,7.97
2022-10-23T04:16:38.811Z,8.18
2022-10-23T04:19:05.257Z,8.50
2022-10-23T04:21:31.693Z,7.85
2022-10-23T04:23:58.062Z,7.47
2022-10-23T04:26:24.555Z,7.15
2022-10-23T04:28:50.980Z,7.60
2022-10-23T04:31:17.379Z,7.40
2022-10-23T04:33:43.879Z,7.30
2022-10-23T04:36:10.421Z,7.10
2022-10-23T04:38:36.855Z,7.25
2022-10-23T04:41:03.527Z,7.40
2022-10-23T04:43:29.946Z,7.45
2022-10-23T04:45:56.319Z,7.30
2022-10-23T04:48:25.587Z,7.03
2022-10-23T04:51:05.243Z,7.18
2022-10-23T04:53:32.062Z,6.95
2022-10-23T04:55:59.836Z,7.13
2022-10-23T04:58:27.924Z,6.80
2022-10-23T05:00:54.514Z,7.07
2022-10-23T05:03:23.895Z,7.72
2022-10-23T05:05:53.469Z,7.15
2022-10-23T05:08:20.121Z,7.40
2022-10-23T05:10:48.937Z,7.28
2022-10-23T05:13:17.245Z,7.63
2022-10-23T05:18:31.063Z,7.53
2022-10-23T05:21:02.273Z,7.82
2022-10-23T05:23:31.963Z,7.57
2022-10-23T05:25:58.382Z,7.97
2022-10-23T05:28:24.822Z,7.30
2022-10-23T05:30:51.313Z,7.13
2022-10-23T05:33:17.924Z,7.60
2022-10-23T05:35:44.924Z,6.93
2022-10-23T05:38:12.969Z,8.10
2022-10-23T05:43:10.723Z,7.10
2022-10-23T05:45:37.140Z,7.90
2022-10-23T05:48:11.071Z,7.18
2022-10-23T05:50:43.330Z,7.50
2022-10-23T05:53:10.745Z,7.70
2022-10-23T05:55:37.233Z,7.07
2022-10-23T05:58:04.288Z,7.03
2022-10-23T06:00:30.847Z,6.60
2022-10-23T06:03:00.042Z,6.73
2022-10-23T06:05:26.597Z,7.35
2022-10-23T06:07:57.406Z,7.50
2022-10-23T06:10:23.824Z,7.38
2022-10-23T06:12:51.156Z,7.70
2022-10-23T06:15:17.816Z,6.87
2022-10-23T06:17:44.466Z,6.93
2022-10-23T06:20:11.346Z,6.05
2022-10-23T06:22:37.726Z,7.07
2022-10-23T06:25:04.494Z,6.85
2022-10-23T06:27:30.860Z,6.90
2022-10-23T06:29:57.237Z,7.88
2022-10-23T06:32:23.629Z,7.00
2022-10-23T06:34:49.987Z,7.00
2022-10-23T06:37:16.393Z,7.57
2022-10-23T06:39:42.819Z,6.30
2022-10-23T06:42:09.223Z,7.47
2022-10-23T06:44:35.593Z,7.00
2022-10-23T06:47:01.975Z,7.00
2022-10-23T06:49:31.442Z,7.30
2022-10-23T06:51:57.854Z,6.67
2022-10-23T06:54:24.237Z,6.82
2022-10-23T06:56:51.187Z,7.15
2022-10-23T06:59:17.616Z,7.28
2022-10-23T07:01:44.170Z,6.97
2022-10-23T07:04:11.138Z,6.53
2022-10-23T07:06:37.497Z,6.72
2022-10-23T07:09:04.024Z,7.00
2022-10-23T07:11:30.422Z,7.13
2022-10-23T07:13:56.832Z,6.78
2022-10-23T07:16:24.002Z,7.23
2022-10-23T07:18:55.727Z,7.88
2022-10-23T07:21:22.160Z,7.55
2022-10-23T07:23:48.523Z,7.22
2022-10-23T07:26:16.416Z,7.68
2022-10-23T07:28:45.237Z,7.73
2022-10-23T07:31:12.471Z,7.18
2022-10-23T07:33:38.946Z,8.15
2022-10-23T07:36:07.535Z,7.60
2022-10-23T07:38:34.971Z,7.72
2022-10-23T07:41:01.802Z,8.00
2022-10-23T07:43:28.414Z,7.78
2022-10-23T07:45:55.536Z,7.72
2022-10-23T07:48:22.384Z,7.43
2022-10-23T07:50:48.792Z,7.43
2022-10-23T07:53:24.241Z,7.90
2022-10-23T07:55:55.586Z,7.60
2022-10-23T07:58:22.461Z,7.70
2022-10-23T08:01:03.692Z,7.93
2022-10-23T08:03:32.701Z,8.05
2022-10-23T08:06:00.026Z,7.50
2022-10-23T08:08:26.561Z,8.10
2022-10-23T08:10:54.590Z,7.13
2022-10-23T08:13:22.051Z,7.32
2022-10-23T08:15:50.469Z,7.18
2022-10-23T08:18:17.401Z,7.33
2022-10-23T08:20:46.017Z,7.22
2022-10-23T08:23:13.757Z,7.65
2022-10-23T08:25:40.760Z,7.03
2022-10-23T08:28:08.791Z,6.70
2022-10-23T08:30:36.558Z,7.00
2022-10-23T08:33:04.549Z,7.22
2022-10-23T08:35:30.990Z,6.82
2022-10-23T08:37:57.431Z,6.78
2022-10-23T08:40:25.152Z,7.00
2022-10-23T08:43:13.203Z,6.93
2022-10-23T08:45:45.207Z,6.32
2022-10-23T08:48:32.978Z,6.53
2022-10-23T08:51:06.088Z,6.50
2022-10-23T08:53:53.156Z,6.20
2022-10-23T08:56:35.000Z,5.77
2022-10-23T08:59:28.977Z,6.20
2022-10-23T09:02:10.712Z,6.07
2022-10-23T09:04:37.573Z,5.90
2022-10-23T09:07:21.586Z,5.93
2022-10-23T09:10:06.688Z,6.00
2022-10-23T09:12:33.238Z,5.75
2022-10-23T09:15:05.477Z,5.90
2022-10-23T09:17:34.460Z,5.80
2022-10-23T09:20:23.743Z,5.50
2022-10-23T09:22:54.846Z,5.50
2022-10-23T09:25:27.559Z,5.50
2022-10-23T09:27:59.054Z,5.40
2022-10-23T09:30:37.330Z,5.57
2022-10-23T09:33:27.311Z,5.60
2022-10-23T09:36:18.303Z,6.10
2022-10-23T09:38:50.595Z,6.03
2022-10-23T09:41:36.576Z,5.50
2022-10-23T09:44:32.918Z,6.00
2022-10-23T09:47:08.980Z,5.90
2022-10-23T09:49:35.754Z,5.60
2022-10-23T09:52:05.016Z,5.70
2022-10-23T09:54:57.224Z,5.47
2022-10-23T09:57:41.873Z,4.95
2022-10-23T10:00:14.630Z,5.15
2022-10-23T10:02:43.652Z,5.33
2022-10-23T10:05:31.880Z,5.50
2022-10-23T10:08:13.623Z,5.18
2022-10-23T10:10:47.391Z,5.35
2022-10-23T10:13:32.481Z,5.88
2022-10-23T10:16:08.649Z,5.60
2022-10-23T10:18:50.356Z,5.88
2022-10-23T10:21:27.830Z,5.25
2022-10-23T10:23:57.261Z,5.22
2022-10-23T10:26:38.891Z,5.22
2022-10-23T10:29:27.058Z,5.40
2022-10-23T10:32:25.890Z,4.95
2022-10-23T10:35:07.158Z,5.05
2022-10-23T10:38:14.432Z,4.45
2022-10-23T10:41:10.224Z,4.60
2022-10-23T10:44:08.838Z,4.20
2022-10-23T10:46:47.635Z,4.63
2022-10-23T10:49:22.897Z,4.10
2022-10-23T10:51:58.440Z,4.50
2022-10-23T10:54:31.046Z,4.10
2022-10-23T10:57:00.164Z,4.43
2022-10-23T10:59:35.670Z,4.03
2022-10-23T11:02:19.797Z,3.88
2022-10-23T11:04:53.025Z,3.90
2022-10-23T11:07:23.703Z,4.50
2022-10-23T11:09:50.445Z,3.97
2022-10-23T11:12:21.645Z,3.95
2022-10-23T11:14:49.853Z,4.60
2022-10-23T11:17:21.509Z,4.10
2022-10-23T11:20:09.060Z,4.25
2022-10-23T11:22:42.958Z,4.20
2022-10-23T11:25:34.585Z,4.07
2022-10-23T11:28:35.557Z,4.18
2022-10-23T11:31:11.887Z,3.78
2022-10-23T11:34:13.651Z,4.00
2022-10-23T11:36:53.574Z,3.87
2022-10-23T11:39:21.448Z,3.80
2022-10-23T11:41:59.403Z,3.95
2022-10-23T11:44:38.020Z,3.90
2022-10-23T11:47:27.531Z,4.13
2022-10-23T11:50:09.136Z,4.17
2022-10-23T11:52:45.528Z,3.90
2022-10-23T11:55:18.917Z,3.90
2022-10-23T11:58:05.170Z,4.05
2022-10-23T12:00:34.028Z,3.90
2022-10-23T12:03:01.932Z,3.90
2022-10-23T12:05:34.051Z,4.47
2022-10-23T12:08:02.410Z,4.18
2022-10-23T12:10:36.006Z,4.20
2022-10-23T12:13:05.383Z,4.10
2022-10-23T12:15:34.630Z,4.30
2022-10-23T12:18:18.144Z,3.83
2022-10-23T12:21:01.783Z,4.00
2022-10-23T12:23:55.644Z,3.95
2022-10-23T12:26:43.336Z,3.75
2022-10-23T12:29:34.192Z,3.87
2022-10-23T12:32:24.176Z,3.40
2022-10-23T12:35:17.916Z,3.80
2022-10-23T12:38:01.538Z,3.70
2022-10-23T12:40:28.351Z,3.60
2022-10-23T12:42:56.174Z,3.57
2022-10-23T12:45:26.165Z,3.40
2022-10-23T12:47:53.790Z,3.47
2022-10-23T12:50:33.570Z,3.20
2022-10-23T12:53:03.089Z,3.55
2022-10-23T12:55:35.119Z,3.57
2022-10-23T12:58:02.506Z,3.42
2022-10-23T13:00:28.925Z,3.50
2022-10-23T13:03:00.785Z,3.30
2022-10-23T13:05:28.180Z,3.53
2022-10-23T13:07:56.869Z,3.30
2022-10-23T13:10:24.522Z,3.20
2022-10-23T13:12:55.848Z,3.10
2022-10-23T13:15:23.446Z,3.53
2022-10-23T13:17:55.927Z,3.40
2022-10-23T13:20:34.040Z,3.00
2022-10-23T13:23:12.208Z,3.40
2022-10-23T13:25:39.979Z,3.20
2022-10-23T13:28:20.805Z,3.40
2022-10-23T13:31:01.932Z,3.40
2022-10-23T13:33:34.769Z,3.70
2022-10-23T13:36:22.815Z,3.40
2022-10-23T13:39:11.186Z,3.03
2022-10-23T13:41:41.875Z,3.40
2022-10-23T13:44:11.813Z,3.30
2022-10-23T13:46:38.288Z,3.70
2022-10-23T13:49:04.750Z,3.70
2022-10-23T13:51:40.147Z,3.58
2022-10-23T13:54:16.163Z,3.40
2022-10-23T13:56:42.649Z,3.55
2022-10-23T13:59:10.934Z,3.63
2022-10-23T14:01:38.000Z,3.58
2022-10-23T14:04:05.643Z,3.45
2022-10-23T14:06:32.996Z,3.42
2022-10-23T14:08:59.445Z,3.50
2022-10-23T14:11:26.395Z,3.57
2022-10-23T14:13:52.783Z,3.40
2022-10-23T14:16:20.155Z,3.70
2022-10-23T14:18:47.156Z,3.38
2022-10-23T14:21:18.862Z,3.17
2022-10-23T14:23:46.030Z,3.20
2022-10-23T14:26:15.605Z,3.25
2022-10-23T14:28:42.811Z,3.20
2022-10-23T14:31:12.074Z,3.47
2022-10-23T14:33:39.557Z,3.28
2022-10-23T14:36:06.755Z,3.70
2022-10-23T14:38:33.605Z,3.55
2022-10-23T14:41:00.242Z,3.20
2022-10-23T14:43:26.683Z,4.05
2022-10-23T14:45:53.205Z,4.10
2022-10-23T14:48:19.669Z,3.37
2022-10-23T14:50:48.183Z,4.43
2022-10-23T14:53:15.791Z,4.03
2022-10-23T14:55:42.190Z,4.32
2022-10-23T14:58:08.623Z,5.40
2022-10-23T15:00:35.064Z,5.40
2022-10-23T15:03:01.483Z,5.95
2022-10-23T15:05:27.974Z,6.20
2022-10-23T15:07:55.452Z,5.63
2022-10-23T15:10:21.888Z,5.30
2022-10-23T15:12:48.327Z,8.80
2022-10-23T15:15:14.748Z,5.45
2022-10-23T15:17:41.191Z,4.25
2022-10-23T15:20:07.953Z,4.28
2022-10-23T15:22:34.425Z,4.05
2022-10-23T15:25:00.829Z,3.80
2022-10-23T15:27:27.248Z,4.05
2022-10-23T15:29:53.654Z,6.03
2022-10-23T15:32:20.071Z,5.15
2022-10-23T15:34:46.512Z,5.03
2022-10-23T15:37:12.922Z,5.40
2022-10-23T15:39:39.398Z,4.55
2022-10-23T15:42:06.443Z,4.53
2022-10-23T15:44:33.729Z,4.70
2022-10-23T15:47:00.416Z,3.97
2022-10-23T15:49:28.420Z,3.53
2022-10-23T15:51:55.131Z,3.50
2022-10-23T15:54:21.833Z,3.35
2022-10-23T15:56:50.878Z,3.50
2022-10-23T15:59:18.851Z,3.70
2022-10-23T16:01:45.416Z,3.27
2022-10-23T16:04:11.967Z,4.07
2022-10-23T16:06:38.420Z,8.60
2022-10-23T16:09:05.297Z,6.78
2022-10-23T16:11:35.104Z,9.25
2022-10-23T16:14:01.620Z,4.93
2022-10-23T16:16:28.417Z,7.60
2022-10-23T16:18:55.535Z,9.80
2022-10-23T16:21:24.623Z,6.45
2022-10-23T16:23:52.119Z,7.20
2022-10-23T16:26:19.440Z,7.97
2022-10-23T16:28:47.306Z,6.07
2022-10-23T16:31:19.982Z,4.07
2022-10-23T16:33:48.200Z,4.50
2022-10-23T16:36:14.696Z,5.20
2022-10-23T16:38:41.114Z,6.33
2022-10-23T16:41:07.598Z,4.80
2022-10-23T16:43:34.127Z,5.00
2022-10-23T16:46:06.292Z,5.30
2022-10-23T16:48:34.312Z,7.40
2022-10-23T16:51:04.399Z,6.67
2022-10-23T16:53:31.270Z,4.57
2022-10-23T16:55:58.094Z,4.00
2022-10-23T16:58:26.005Z,6.20
2022-10-23T17:01:07.073Z,6.68
2022-10-23T17:03:35.752Z,4.50
2022-10-23T17:06:06.122Z,4.95
2022-10-23T17:08:35.288Z,6.90
2022-10-23T17:11:15.577Z,6.40
2022-10-23T17:13:46.131Z,4.88
2022-10-23T17:16:16.420Z,4.10
2022-10-23T17:18:44.776Z,3.60
2022-10-23T17:21:13.136Z,4.00
2022-10-23T17:23:40.011Z,4.47
2022-10-23T17:26:11.405Z,4.20
2022-10-23T17:28:38.467Z,3.77
2022-10-23T17:31:05.244Z,4.07
2022-10-23T17:33:31.670Z,3.92
2022-10-23T17:36:01.694Z,3.90
2022-10-23T17:38:28.417Z,4.00
2022-10-23T17:40:54.830Z,3.60
2022-10-23T17:43:21.312Z,3.97
2022-10-23T17:45:47.767Z,4.05
2022-10-23T17:48:14.267Z,3.97
2022-10-23T17:50:41.182Z,3.60
2022-10-23T17:53:07.938Z,4.20
2022-10-23T17:55:41.630Z,3.90
2022-10-23T17:58:08.738Z,4.25
2022-10-23T18:00:36.807Z,4.03
2022-10-23T18:03:04.445Z,3.90
2022-10-23T18:05:32.478Z,4.10
2022-10-23T18:07:59.548Z,3.75
2022-10-23T18:10:26.118Z,3.90
2022-10-23T18:12:52.547Z,3.92
2022-10-23T18:15:18.957Z,3.78
2022-10-23T18:17:45.850Z,3.73
2022-10-23T18:20:12.741Z,3.92
2022-10-23T18:22:39.147Z,3.80
2022-10-23T18:25:06.128Z,3.72
2022-10-23T18:27:32.672Z,3.50
2022-10-23T18:29:59.113Z,3.70
2022-10-23T18:32:25.483Z,3.63
2022-10-23T18:34:51.881Z,3.50
2022-10-23T18:37:18.354Z,3.63
2022-10-23T18:39:44.823Z,3.50
2022-10-23T18:42:11.226Z,3.27
2022-10-23T18:44:37.772Z,3.40
2022-10-23T18:47:04.284Z,2.97
2022-10-23T18:49:30.769Z,2.60
2022-10-23T18:51:57.395Z,2.80
2022-10-23T18:54:23.817Z,2.80
2022-10-23T18:56:50.371Z,3.03
2022-10-23T18:59:19.977Z,2.47
2022-10-23T19:01:46.664Z,2.17
2022-10-23T19:04:13.592Z,2.20
2022-10-23T19:06:40.004Z,2.60
2022-10-23T19:09:08.817Z,2.20
2022-10-23T19:11:36.281Z,2.30
2022-10-23T19:14:03.175Z,2.13
2022-10-23T19:16:43.865Z,2.30
2022-10-23T19:19:19.494Z,2.10
2022-10-23T19:21:47.256Z,2.00
2022-10-23T19:24:19.069Z,1.90
2022-10-23T19:26:46.024Z,1.80
2022-10-23T19:29:18.297Z,2.00
2022-10-23T19:31:47.102Z,1.80
2022-10-23T19:34:13.501Z,1.88
2022-10-23T19:36:40.014Z,2.25
2022-10-23T19:39:06.399Z,2.00
2022-10-23T19:41:32.930Z,1.90
2022-10-23T19:43:59.376Z,1.80
2022-10-23T19:46:25.830Z,2.10
2022-10-23T19:48:52.269Z,2.13
2022-10-23T19:51:18.770Z,1.67
2022-10-23T19:53:45.245Z,1.77
2022-10-23T19:56:12.295Z,1.77
2022-10-23T19:58:39.400Z,1.60
2022-10-23T20:01:10.335Z,1.63
2022-10-23T20:03:37.757Z,1.40
2022-10-23T20:06:04.277Z,1.80
2022-10-23T20:08:32.777Z,1.70
2022-10-23T20:11:01.616Z,1.85
2022-10-23T20:13:28.121Z,1.70
2022-10-23T20:15:54.571Z,1.92
2022-10-23T20:18:21.034Z,1.77
2022-10-23T20:20:47.483Z,1.97
2022-10-23T20:23:13.913Z,1.80
2022-10-23T20:25:40.377Z,1.88
2022-10-23T20:28:09.092Z,1.88
2022-10-23T20:30:42.168Z,1.80
2022-10-23T20:33:09.053Z,1.77
2022-10-23T20:35:43.640Z,1.85
2022-10-23T20:38:10.272Z,1.70
2022-10-23T20:40:37.124Z,1.70
2022-10-23T20:43:03.987Z,1.90
2022-10-23T20:45:30.430Z,1.90
2022-10-23T20:47:57.366Z,1.90
2022-10-23T20:50:23.777Z,1.73
2022-10-23T20:52:50.629Z,1.80
2022-10-23T20:55:17.193Z,1.80
2022-10-23T20:57:43.879Z,1.90
2022-10-23T21:00:11.071Z,1.80
2022-10-23T21:02:37.546Z,1.90
2022-10-23T21:05:04.351Z,1.80
2022-10-23T21:07:30.783Z,1.80
2022-10-23T21:09:57.198Z,1.90
2022-10-23T21:12:23.576Z,1.85
2022-10-23T21:14:49.958Z,1.70
2022-10-23T21:17:16.370Z,2.22
2022-10-23T21:19:42.804Z,2.20
2022-10-23T21:22:09.165Z,2.07
2022-10-23T21:24:35.640Z,2.00
2022-10-23T21:27:02.054Z,2.20
2022-10-23T21:29:28.536Z,2.15
2022-10-23T21:31:59.890Z,2.42
2022-10-23T21:34:27.182Z,2.33
2022-10-23T21:37:12.967Z,2.25
2022-10-23T21:39:40.637Z,2.08
2022-10-23T21:42:07.052Z,1.90
2022-10-23T21:44:33.479Z,2.00
2022-10-23T21:46:59.876Z,1.90
2022-10-23T21:49:26.371Z,2.30
2022-10-23T21:51:52.753Z,2.20
2022-10-23T21:54:19.163Z,2.47
2022-10-23T21:56:48.478Z,2.60
2022-10-23T21:59:19.219Z,2.60
2022-10-23T22:01:47.581Z,2.90
2022-10-23T22:04:15.772Z,2.70
2022-10-23T22:06:43.600Z,2.80
2022-10-23T22:09:13.042Z,2.80
2022-10-23T22:11:39.683Z,3.07
2022-10-23T22:14:06.222Z,2.50
2022-10-23T22:16:32.843Z,3.10
2022-10-23T22:18:59.260Z,3.28
2022-10-23T22:21:28.449Z,3.20
2022-10-23T22:23:57.110Z,3.50
2022-10-23T22:26:27.515Z,3.40
2022-10-23T22:28:56.467Z,3.40
2022-10-23T22:31:25.612Z,3.53
2022-10-23T22:33:52.982Z,3.00
2022-10-23T22:36:20.064Z,3.10
2022-10-23T22:38:46.718Z,3.13
2022-10-23T22:41:13.296Z,3.25
2022-10-23T22:43:39.972Z,3.42
2022-10-23T22:46:10.406Z,3.15
2022-10-23T22:48:37.273Z,3.10
2022-10-23T22:51:07.277Z,3.20
2022-10-23T22:53:35.641Z,3.20
2022-10-23T22:56:06.553Z,3.00
2022-10-23T22:58:33.533Z,2.95
2022-10-23T23:01:25.360Z,2.97
2022-10-23T23:03:52.697Z,3.53
2022-10-23T23:06:20.240Z,3.63
2022-10-23T23:08:47.391Z,3.33
2022-10-23T23:11:15.731Z,3.53
2022-10-23T23:13:43.149Z,3.10
2022-10-23T23:16:18.172Z,3.70
2022-10-23T23:18:44.708Z,3.10
2022-10-23T23:21:11.065Z,3.10
2022-10-23T23:23:37.458Z,3.30
2022-10-23T23:26:06.631Z,3.57
2022-10-23T23:28:33.533Z,3.63
2022-10-23T23:31:13.477Z,3.65
2022-10-23T23:33:39.913Z,3.33
2022-10-23T23:36:12.104Z,3.20
2022-10-23T23:38:39.262Z,3.20
2022-10-23T23:41:06.961Z,3.40
2022-10-23T23:43:33.529Z,3.35
2022-10-23T23:45:59.908Z,3.63
2022-10-23T23:48:26.399Z,3.33
2022-10-23T23:50:52.856Z,3.43
2022-10-23T23:53:19.254Z,2.78
2022-10-23T23:55:46.688Z,2.80
2022-10-23T23:58:13.324Z,2.70
